createdAt,value
2018-02-17T00:00:40.274Z,99.99
2018-02-17T00:01:40.290Z,99.99
2018-02-17T00:02:40.304Z,99.99
2018-02-17T00:03:40.318Z,99.99
2018-02-17T00:04:40.336Z,99.99
2018-02-17T00:05:40.348Z,99.99
2018-02-17T00:06:40.364Z,99.99
2018-02-17T00:07:40.378Z,99.99
2018-02-17T00:08:40.393Z,99.99
2018-02-17T00:09:40.408Z,99.99
2018-02-17T00:10:40.424Z,99.99
2018-02-17T00:11:40.437Z,99.99
2018-02-17T00:12:40.453Z,99.99
2018-02-17T00:13:40.467Z,99.99
2018-02-17T00:14:40.483Z,99.99
2018-02-17T00:15:40.497Z,99.99
2018-02-17T00:16:40.512Z,99.99
2018-02-17T00:17:40.528Z,99.99
2018-02-17T00:18:40.545Z,99.99
2018-02-17T00:19:40.556Z,99.99
2018-02-17T00:20:40.571Z,99.99
2018-02-17T00:21:40.587Z,99.99
2018-02-17T00:22:40.602Z,99.99
2018-02-17T00:23:40.616Z,99.99
2018-02-17T00:24:40.631Z,99.99
2018-02-17T00:25:40.646Z,99.99
2018-02-17T00:26:40.662Z,99.99
2018-02-17T00:27:40.675Z,99.99
2018-02-17T00:28:40.689Z,99.99
2018-02-17T00:29:40.708Z,99.99
2018-02-17T00:30:40.720Z,99.99
2018-02-17T00:31:40.734Z,99.99
2018-02-17T00:32:40.754Z,99.99
2018-02-17T00:33:40.768Z,99.99
2018-02-17T00:34:40.779Z,99.99
2018-02-17T00:35:40.793Z,99.99
2018-02-17T00:36:40.808Z,99.99
2018-02-17T00:37:40.823Z,99.99
2018-02-17T00:38:40.839Z,99.99
2018-02-17T00:39:40.853Z,99.99
2018-02-17T00:40:40.868Z,99.99
2018-02-17T00:41:40.884Z,99.99
2018-02-17T00:42:40.898Z,99.99
2018-02-17T00:43:40.911Z,99.99
2018-02-17T00:44:40.928Z,99.99
2018-02-17T00:45:40.941Z,99.99
2018-02-17T00:46:40.956Z,99.99
2018-02-17T00:47:40.971Z,99.99
2018-02-17T00:48:40.989Z,99.99
2018-02-17T00:49:41.001Z,99.99
2018-02-17T00:50:41.015Z,99.99
2018-02-17T00:51:41.030Z,99.99
2018-02-17T00:52:41.045Z,99.99
2018-02-17T00:53:41.059Z,99.99
2018-02-17T00:54:41.074Z,99.99
2018-02-17T00:55:41.088Z,99.99
2018-02-17T00:56:41.101Z,99.99
2018-02-17T00:57:41.118Z,99.99
2018-02-17T00:58:41.133Z,99.99
2018-02-17T00:59:41.146Z,99.99
2018-02-17T01:00:41.161Z,99.99
2018-02-17T01:01:41.176Z,99.99
2018-02-17T01:02:41.193Z,99.99
2018-02-17T01:03:41.206Z,99.99
2018-02-17T01:04:41.219Z,99.99
2018-02-17T01:05:41.236Z,99.99
2018-02-17T01:06:41.249Z,99.99
2018-02-17T01:07:41.263Z,99.99
2018-02-17T01:08:41.278Z,99.99
2018-02-17T01:09:41.296Z,99.99
2018-02-17T01:10:41.308Z,99.99
2018-02-17T01:11:41.322Z,99.99
2018-02-17T01:12:41.336Z,99.99
2018-02-17T01:13:41.350Z,99.99
2018-02-17T01:14:41.366Z,99.99
2018-02-17T01:15:41.380Z,99.99
2018-02-17T01:16:41.394Z,99.99
2018-02-17T01:17:41.413Z,99.99
2018-02-17T01:18:41.424Z,99.99
2018-02-17T01:19:41.438Z,99.99
2018-02-17T01:20:41.452Z,99.99
2018-02-17T01:21:41.467Z,99.99
2018-02-17T01:22:41.482Z,99.99
2018-02-17T01:23:41.496Z,99.99
2018-02-17T01:24:41.510Z,99.99
2018-02-17T01:25:41.524Z,99.99
2018-02-17T01:26:41.540Z,99.99
2018-02-17T01:27:41.553Z,99.99
2018-02-17T01:28:41.570Z,99.99
2018-02-17T01:29:41.584Z,99.99
2018-02-17T01:30:41.603Z,99.99
2018-02-17T01:31:41.612Z,99.99
2018-02-17T01:32:41.628Z,99.99
2018-02-17T01:33:41.639Z,99.99
2018-02-17T01:34:41.656Z,99.99
2018-02-17T01:35:41.668Z,99.99
2018-02-17T01:36:41.683Z,99.99
2018-02-17T01:37:41.697Z,99.99
2018-02-17T01:38:41.712Z,99.99
2018-02-17T01:39:41.724Z,99.99
2018-02-17T01:40:41.740Z,99.99
2018-02-17T01:41:41.754Z,99.99
2018-02-17T01:42:41.770Z,99.99
2018-02-17T01:43:41.783Z,99.99
2018-02-17T01:44:41.798Z,99.99
2018-02-17T01:45:41.811Z,99.99
2018-02-17T01:46:41.826Z,99.99
2018-02-17T01:47:41.839Z,99.99
2018-02-17T01:48:41.853Z,99.99
2018-02-17T01:49:41.870Z,99.99
2018-02-17T01:50:41.884Z,99.99
2018-02-17T01:51:41.897Z,99.99
2018-02-17T01:52:41.912Z,99.99
2018-02-17T01:53:41.926Z,99.99
2018-02-17T01:54:41.940Z,99.99
2018-02-17T01:55:41.954Z,99.99
2018-02-17T01:56:41.968Z,99.99
2018-02-17T01:57:41.983Z,99.99
2018-02-17T01:58:41.998Z,99.99
2018-02-17T01:59:42.011Z,99.99
2018-02-17T02:00:42.025Z,99.99
2018-02-17T02:01:42.041Z,99.99
2018-02-17T02:02:42.056Z,99.99
2018-02-17T02:03:42.067Z,99.99
2018-02-17T02:04:42.082Z,99.99
2018-02-17T02:05:42.096Z,99.99
2018-02-17T02:06:42.110Z,99.99
2018-02-17T02:07:42.124Z,99.99
2018-02-17T02:08:42.137Z,99.99
2018-02-17T02:09:42.153Z,99.99
2018-02-17T02:10:42.167Z,99.99
2018-02-17T02:11:42.180Z,99.99
2018-02-17T02:12:42.196Z,99.99
2018-02-17T02:13:42.210Z,99.99
2018-02-17T02:14:42.224Z,99.99
2018-02-17T02:15:42.237Z,99.99
2018-02-17T02:16:42.252Z,99.99
2018-02-17T02:17:42.266Z,99.99
2018-02-17T02:18:42.281Z,99.99
2018-02-17T02:19:42.294Z,99.99
2018-02-17T02:20:42.309Z,99.99
2018-02-17T02:21:42.323Z,99.99
2018-02-17T02:22:42.337Z,99.99
2018-02-17T02:23:42.351Z,99.99
2018-02-17T02:24:42.364Z,99.99
2018-02-17T02:25:42.380Z,99.99
2018-02-17T02:26:42.394Z,99.99
2018-02-17T02:27:42.408Z,99.99
2018-02-17T02:28:42.422Z,99.99
2018-02-17T02:29:42.436Z,99.99
2018-02-17T02:30:42.451Z,99.99
2018-02-17T02:31:42.465Z,99.99
2018-02-17T02:32:42.479Z,99.99
2018-02-17T02:33:42.493Z,99.99
2018-02-17T02:34:42.538Z,99.99
2018-02-17T02:35:42.522Z,99.99
2018-02-17T02:36:42.536Z,99.99
2018-02-17T02:37:42.553Z,99.99
2018-02-17T02:38:42.563Z,99.99
2018-02-17T02:39:42.578Z,99.99
2018-02-17T02:40:42.592Z,99.99
2018-02-17T02:41:42.606Z,99.99
2018-02-17T02:42:42.620Z,99.99
2018-02-17T02:43:42.634Z,99.99
2018-02-17T02:44:42.651Z,99.99
2018-02-17T02:45:42.663Z,99.99
2018-02-17T02:46:42.677Z,99.99
2018-02-17T02:47:42.689Z,99.99
2018-02-17T02:48:42.706Z,99.99
2018-02-17T02:49:42.718Z,99.99
2018-02-17T02:50:42.738Z,99.99
2018-02-17T02:51:42.746Z,99.99
2018-02-17T02:52:42.764Z,99.99
2018-02-17T02:53:42.776Z,99.99
2018-02-17T02:54:42.791Z,99.99
2018-02-17T02:55:42.807Z,99.99
2018-02-17T02:56:42.817Z,99.99
2018-02-17T02:57:42.832Z,99.99
2018-02-17T02:58:42.846Z,99.99
2018-02-17T02:59:42.860Z,99.99
2018-02-17T03:00:42.874Z,99.99
2018-02-17T03:01:42.888Z,99.99
2018-02-17T03:02:42.903Z,99.99
2018-02-17T03:03:42.915Z,99.99
2018-02-17T03:04:42.933Z,99.99
2018-02-17T03:05:42.944Z,99.99
2018-02-17T03:06:42.958Z,99.99
2018-02-17T03:07:42.971Z,99.99
2018-02-17T03:08:42.985Z,99.99
2018-02-17T03:09:43.000Z,99.99
2018-02-17T03:10:43.014Z,99.99
2018-02-17T03:11:43.026Z,99.99
2018-02-17T03:12:43.041Z,99.99
2018-02-17T03:13:43.055Z,99.99
2018-02-17T03:14:43.068Z,99.99
2018-02-17T03:15:43.082Z,99.99
2018-02-17T03:16:43.096Z,99.99
2018-02-17T03:17:43.111Z,99.99
2018-02-17T03:18:43.123Z,99.99
2018-02-17T03:19:43.137Z,99.99
2018-02-17T03:20:43.151Z,99.99
2018-02-17T03:21:43.165Z,99.99
2018-02-17T03:22:43.179Z,99.99
2018-02-17T03:23:43.192Z,99.99
2018-02-17T03:24:43.206Z,99.99
2018-02-17T03:25:43.321Z,99.99
2018-02-17T03:26:43.234Z,99.99
2018-02-17T03:27:43.247Z,99.99
2018-02-17T03:28:43.263Z,99.99
2018-02-17T03:29:43.275Z,99.99
2018-02-17T03:30:43.291Z,99.99
2018-02-17T03:31:43.303Z,99.99
2018-02-17T03:32:43.317Z,99.99
2018-02-17T03:33:43.331Z,99.99
2018-02-17T03:34:43.346Z,99.99
2018-02-17T03:35:43.358Z,99.99
2018-02-17T03:36:43.376Z,99.99
2018-02-17T03:37:43.388Z,99.99
2018-02-17T03:38:43.400Z,99.99
2018-02-17T03:39:43.413Z,99.99
2018-02-17T03:40:43.427Z,99.99
2018-02-17T03:41:43.441Z,99.99
2018-02-17T03:42:43.456Z,99.99
2018-02-17T03:43:43.468Z,99.99
2018-02-17T03:44:43.482Z,99.99
2018-02-17T03:45:43.495Z,99.99
2018-02-17T03:46:43.510Z,99.99
2018-02-17T03:47:43.523Z,99.99
2018-02-17T03:48:43.536Z,99.99
2018-02-17T03:49:43.550Z,99.99
2018-02-17T03:50:43.563Z,99.99
2018-02-17T03:51:43.576Z,99.99
2018-02-17T03:52:43.590Z,99.99
2018-02-17T03:53:43.605Z,99.99
2018-02-17T03:54:43.617Z,99.99
2018-02-17T03:55:43.630Z,99.99
2018-02-17T03:56:43.644Z,99.99
2018-02-17T03:57:43.658Z,99.99
2018-02-17T03:58:43.672Z,99.99
2018-02-17T03:59:43.716Z,99.99
2018-02-17T04:00:43.702Z,99.99
2018-02-17T04:01:43.713Z,99.99
2018-02-17T04:02:43.725Z,99.99
2018-02-17T04:03:43.738Z,99.99
2018-02-17T04:04:43.752Z,99.99
2018-02-17T04:05:43.764Z,99.99
2018-02-17T04:06:43.780Z,99.99
2018-02-17T04:07:43.795Z,99.99
2018-02-17T04:08:43.806Z,99.99
2018-02-17T04:09:43.819Z,99.99
2018-02-17T04:10:43.833Z,99.99
2018-02-17T04:11:43.846Z,99.99
2018-02-17T04:12:43.861Z,99.99
2018-02-17T04:13:43.874Z,99.99
2018-02-17T04:14:43.888Z,99.99
2018-02-17T04:15:43.901Z,99.99
2018-02-17T04:16:43.914Z,99.99
2018-02-17T04:17:43.929Z,99.99
2018-02-17T04:18:43.942Z,99.99
2018-02-17T04:19:43.955Z,99.99
2018-02-17T04:20:43.977Z,99.99
2018-02-17T04:21:43.982Z,99.99
2018-02-17T04:22:43.996Z,99.99
2018-02-17T04:23:44.009Z,99.99
2018-02-17T04:24:44.023Z,99.99
2018-02-17T04:25:44.036Z,99.99
2018-02-17T04:26:44.050Z,99.99
2018-02-17T04:27:44.063Z,99.99
2018-02-17T04:28:44.076Z,99.99
2018-02-17T04:29:44.090Z,99.99
2018-02-17T04:30:44.108Z,99.99
2018-02-17T04:31:44.118Z,99.99
2018-02-17T04:32:44.131Z,99.99
2018-02-17T04:33:44.145Z,99.99
2018-02-17T04:34:44.159Z,99.99
2018-02-17T04:35:44.173Z,99.99
2018-02-17T04:36:44.186Z,99.99
2018-02-17T04:37:44.200Z,99.99
2018-02-17T04:38:44.213Z,99.99
2018-02-17T04:39:44.226Z,99.99
2018-02-17T04:40:44.240Z,99.99
2018-02-17T04:41:44.254Z,99.99
2018-02-17T04:42:44.267Z,99.99
2018-02-17T04:43:44.280Z,99.99
2018-02-17T04:44:44.294Z,99.99
2018-02-17T04:45:44.308Z,99.99
2018-02-17T04:46:44.322Z,99.99
2018-02-17T04:47:44.335Z,99.99
2018-02-17T04:48:44.350Z,99.99
2018-02-17T04:49:44.363Z,99.99
2018-02-17T04:50:44.376Z,99.99
2018-02-17T04:51:44.393Z,99.99
2018-02-17T04:52:44.403Z,99.99
2018-02-17T04:53:44.416Z,99.99
2018-02-17T04:54:44.430Z,99.99
2018-02-17T04:55:44.443Z,99.99
2018-02-17T04:56:44.475Z,99.99
2018-02-17T04:57:44.470Z,99.99
2018-02-17T04:58:44.483Z,99.99
2018-02-17T04:59:44.497Z,99.99
2018-02-17T05:00:44.513Z,99.99
2018-02-17T05:01:44.522Z,99.99
2018-02-17T05:02:44.537Z,99.99
2018-02-17T05:03:44.550Z,99.99
2018-02-17T05:04:44.564Z,99.99
2018-02-17T05:05:44.579Z,99.99
2018-02-17T05:06:44.590Z,99.99
2018-02-17T05:07:44.603Z,99.99
2018-02-17T05:08:44.620Z,99.99
2018-02-17T05:09:44.631Z,99.99
2018-02-17T05:10:44.645Z,99.99
2018-02-17T05:11:44.657Z,99.99
2018-02-17T05:12:44.671Z,99.99
2018-02-17T05:13:44.684Z,99.99
2018-02-17T05:14:44.698Z,99.99
2018-02-17T05:15:44.712Z,99.99
2018-02-17T05:16:44.724Z,99.99
2018-02-17T05:17:44.738Z,99.99
2018-02-17T05:18:44.753Z,99.99
2018-02-17T05:19:44.765Z,99.99
2018-02-17T05:20:44.778Z,99.99
2018-02-17T05:21:44.791Z,99.99
2018-02-17T05:22:44.805Z,99.99
2018-02-17T05:23:44.818Z,99.99
2018-02-17T05:24:44.832Z,99.99
2018-02-17T05:25:44.845Z,99.99
2018-02-17T05:26:44.859Z,99.99
2018-02-17T05:27:44.872Z,99.99
2018-02-17T05:28:44.885Z,99.99
2018-02-17T05:29:44.898Z,99.99
2018-02-17T05:30:44.911Z,99.99
2018-02-17T05:31:44.924Z,99.99
2018-02-17T05:32:44.939Z,99.99
2018-02-17T05:33:44.954Z,99.99
2018-02-17T05:34:44.964Z,99.99
2018-02-17T05:35:44.980Z,99.99
2018-02-17T05:36:44.990Z,99.99
2018-02-17T05:37:45.004Z,99.99
2018-02-17T05:38:45.019Z,99.99
2018-02-17T05:39:45.031Z,99.99
2018-02-17T05:40:45.044Z,99.99
2018-02-17T05:41:45.057Z,99.99
2018-02-17T05:42:45.070Z,99.99
2018-02-17T05:43:45.084Z,99.99
2018-02-17T05:44:45.096Z,99.99
2018-02-17T05:45:45.110Z,99.99
2018-02-17T05:46:45.124Z,99.99
2018-02-17T05:47:45.135Z,99.99
2018-02-17T05:48:45.149Z,99.99
2018-02-17T05:49:45.162Z,99.99
2018-02-17T05:50:45.176Z,99.99
2018-02-17T05:51:45.188Z,99.99
2018-02-17T05:52:45.201Z,99.99
2018-02-17T05:53:45.219Z,99.99
2018-02-17T05:54:45.229Z,99.99
2018-02-17T05:55:45.343Z,99.99
2018-02-17T05:56:45.255Z,99.99
2018-02-17T05:57:45.268Z,99.99
2018-02-17T05:58:45.280Z,99.99
2018-02-17T05:59:45.295Z,99.99
2018-02-17T06:00:45.307Z,99.99
2018-02-17T06:01:45.321Z,99.99
2018-02-17T06:02:45.335Z,99.99
2018-02-17T06:03:45.347Z,99.99
2018-02-17T06:04:45.359Z,99.99
2018-02-17T06:05:45.373Z,99.99
2018-02-17T06:06:45.386Z,99.99
2018-02-17T06:07:45.399Z,99.99
2018-02-17T06:08:45.413Z,99.99
2018-02-17T06:09:45.425Z,99.99
2018-02-17T06:10:45.439Z,99.99
2018-02-17T06:11:45.450Z,99.99
2018-02-17T06:12:45.465Z,99.99
2018-02-17T06:13:45.478Z,99.99
2018-02-17T06:14:45.494Z,99.99
2018-02-17T06:15:45.504Z,99.99
2018-02-17T06:16:45.517Z,99.99
2018-02-17T06:17:45.531Z,99.99
2018-02-17T06:18:45.545Z,99.99
2018-02-17T06:19:45.557Z,99.99
2018-02-17T06:20:45.570Z,99.99
2018-02-17T06:21:45.584Z,99.99
2018-02-17T06:22:45.598Z,99.99
2018-02-17T06:23:45.610Z,99.99
2018-02-17T06:24:45.625Z,99.99
2018-02-17T06:25:45.637Z,99.99
2018-02-17T06:26:45.652Z,99.99
2018-02-17T06:27:45.664Z,99.99
2018-02-17T06:28:45.677Z,99.99
2018-02-17T06:29:45.690Z,99.99
2018-02-17T06:30:45.705Z,99.99
2018-02-17T06:31:45.717Z,99.99
2018-02-17T06:32:45.737Z,99.99
2018-02-17T06:33:45.744Z,99.99
2018-02-17T06:34:45.757Z,99.99
2018-02-17T06:35:45.771Z,99.99
2018-02-17T06:36:45.784Z,99.99
2018-02-17T06:37:45.797Z,99.99
2018-02-17T06:38:45.810Z,99.99
2018-02-17T06:39:45.823Z,99.99
2018-02-17T06:40:45.837Z,99.99
2018-02-17T06:41:45.852Z,99.99
2018-02-17T06:42:45.865Z,99.99
2018-02-17T06:43:45.878Z,99.99
2018-02-17T06:44:45.890Z,99.99
2018-02-17T06:45:45.905Z,99.99
2018-02-17T06:46:45.917Z,99.99
2018-02-17T06:47:45.930Z,99.99
2018-02-17T06:48:45.944Z,99.99
2018-02-17T06:49:45.959Z,99.99
2018-02-17T06:50:45.972Z,99.99
2018-02-17T06:51:45.984Z,99.99
2018-02-17T06:52:45.998Z,99.99
2018-02-17T06:53:46.016Z,99.99
2018-02-17T06:54:46.024Z,99.99
2018-02-17T06:55:46.041Z,99.99
2018-02-17T06:56:46.061Z,99.99
2018-02-17T06:57:46.065Z,99.99
2018-02-17T06:58:46.078Z,99.99
2018-02-17T06:59:46.091Z,99.99
2018-02-17T07:00:46.104Z,99.99
2018-02-17T07:01:46.118Z,99.99
2018-02-17T07:02:46.133Z,99.99
2018-02-17T07:03:46.145Z,99.99
2018-02-17T07:04:46.158Z,99.99
2018-02-17T07:05:46.172Z,99.99
2018-02-17T07:06:46.186Z,99.99
2018-02-17T07:07:46.203Z,99.99
2018-02-17T07:08:46.211Z,99.99
2018-02-17T07:09:46.225Z,99.99
2018-02-17T07:10:46.241Z,99.99
2018-02-17T07:11:46.252Z,99.99
2018-02-17T07:12:46.265Z,99.99
2018-02-17T07:13:46.279Z,99.99
2018-02-17T07:14:46.292Z,99.99
2018-02-17T07:15:46.305Z,99.99
2018-02-17T07:16:46.320Z,99.99
2018-02-17T07:17:46.333Z,99.99
2018-02-17T07:18:46.348Z,99.99
2018-02-17T07:19:46.360Z,99.99
2018-02-17T07:20:46.374Z,99.99
2018-02-17T07:21:46.386Z,99.99
2018-02-17T07:22:46.399Z,99.99
2018-02-17T07:23:46.413Z,99.99
2018-02-17T07:24:46.427Z,99.99
2018-02-17T07:25:46.440Z,99.99
2018-02-17T07:26:46.455Z,99.99
2018-02-17T07:27:46.468Z,99.99
2018-02-17T07:28:46.482Z,99.99
2018-02-17T07:29:46.494Z,99.99
2018-02-17T07:30:46.506Z,99.99
2018-02-17T07:31:46.520Z,99.99
2018-02-17T07:32:46.534Z,99.99
2018-02-17T07:33:46.551Z,99.99
2018-02-17T07:34:46.564Z,99.99
2018-02-17T07:35:46.575Z,99.99
2018-02-17T07:36:46.588Z,99.99
2018-02-17T07:37:46.602Z,99.99
2018-02-17T07:38:46.617Z,99.99
2018-02-17T07:39:46.629Z,99.99
2018-02-17T07:40:46.643Z,99.99
2018-02-17T07:41:46.656Z,99.99
2018-02-17T07:42:46.670Z,99.99
2018-02-17T07:43:46.682Z,99.99
2018-02-17T07:44:46.697Z,99.99
2018-02-17T07:45:46.762Z,99.99
2018-02-17T07:46:46.724Z,99.99
2018-02-17T07:47:46.737Z,99.99
2018-02-17T07:48:46.751Z,99.99
2018-02-17T07:49:46.763Z,99.99
2018-02-17T07:50:46.779Z,99.99
2018-02-17T07:51:46.791Z,99.99
2018-02-17T07:52:46.805Z,99.99
2018-02-17T07:53:46.819Z,99.99
2018-02-17T07:54:46.832Z,99.99
2018-02-17T07:55:46.845Z,99.99
2018-02-17T07:56:46.858Z,99.99
2018-02-17T07:57:46.874Z,99.99
2018-02-17T07:58:46.886Z,99.99
2018-02-17T07:59:46.900Z,99.99
2018-02-17T08:00:46.914Z,99.99
2018-02-17T08:01:46.928Z,99.99
2018-02-17T08:02:46.942Z,99.99
2018-02-17T08:03:46.956Z,99.99
2018-02-17T08:04:46.968Z,99.99
2018-02-17T08:05:46.982Z,99.99
2018-02-17T08:06:46.995Z,99.99
2018-02-17T08:07:47.011Z,99.99
2018-02-17T08:08:47.024Z,99.99
2018-02-17T08:09:47.059Z,99.99
2018-02-17T08:10:47.053Z,99.99
2018-02-17T08:11:47.068Z,99.99
2018-02-17T08:12:47.078Z,99.99
2018-02-17T08:13:47.093Z,99.99
2018-02-17T08:14:47.108Z,99.99
2018-02-17T08:15:47.120Z,99.99
2018-02-17T08:16:47.133Z,99.99
2018-02-17T08:17:47.147Z,99.99
2018-02-17T08:18:47.161Z,99.99
2018-02-17T08:19:47.174Z,99.99
2018-02-17T08:20:47.189Z,99.99
2018-02-17T08:21:47.204Z,99.99
2018-02-17T08:22:47.216Z,99.99
2018-02-17T08:23:47.230Z,99.99
2018-02-17T08:24:47.244Z,99.99
2018-02-17T08:25:47.259Z,99.99
2018-02-17T08:26:47.273Z,99.99
2018-02-17T08:27:47.286Z,99.99
2018-02-17T08:28:47.300Z,99.99
2018-02-17T08:29:47.315Z,99.99
2018-02-17T08:30:47.330Z,99.99
2018-02-17T08:31:47.343Z,99.99
2018-02-17T08:32:47.358Z,99.99
2018-02-17T08:33:47.373Z,99.99
2018-02-17T08:34:47.385Z,99.99
2018-02-17T08:35:47.399Z,99.99
2018-02-17T08:36:47.413Z,99.99
2018-02-17T08:37:47.427Z,99.71
2018-02-17T08:38:47.446Z,99.99
2018-02-17T08:39:47.455Z,99.52
2018-02-17T08:40:47.469Z,99.80
2018-02-17T08:41:47.484Z,99.43
2018-02-17T08:42:47.498Z,99.85
2018-02-17T08:43:47.512Z,99.85
2018-02-17T08:44:47.526Z,99.85
2018-02-17T08:45:47.540Z,99.10
2018-02-17T08:46:47.559Z,99.10
2018-02-17T08:47:47.569Z,99.19
2018-02-17T08:48:47.583Z,98.91
2018-02-17T08:49:47.596Z,99.19
2018-02-17T08:50:47.612Z,99.29
2018-02-17T08:51:47.625Z,99.38
2018-02-17T08:52:47.642Z,99.38
2018-02-17T08:53:47.659Z,98.91
2018-02-17T08:54:47.671Z,98.53
2018-02-17T08:55:47.683Z,99.01
2018-02-17T08:56:47.696Z,98.53
2018-02-17T08:57:47.716Z,98.44
2018-02-17T08:58:47.729Z,98.44
2018-02-17T08:59:47.741Z,98.44
2018-02-17T09:00:47.755Z,98.06
2018-02-17T09:01:47.775Z,98.15
2018-02-17T09:02:47.786Z,97.68
2018-02-17T09:03:47.797Z,98.06
2018-02-17T09:04:47.813Z,97.87
2018-02-17T09:05:47.827Z,97.87
2018-02-17T09:06:47.843Z,97.96
2018-02-17T09:07:47.855Z,97.87
2018-02-17T09:08:47.871Z,97.87
2018-02-17T09:09:47.886Z,98.06
2018-02-17T09:10:47.901Z,97.68
2018-02-17T09:11:47.914Z,97.39
2018-02-17T09:12:47.930Z,97.39
2018-02-17T09:13:47.944Z,97.87
2018-02-17T09:14:47.964Z,97.39
2018-02-17T09:15:47.973Z,97.49
2018-02-17T09:16:47.988Z,97.68
2018-02-17T09:17:48.003Z,97.49
2018-02-17T09:18:48.018Z,97.49
2018-02-17T09:19:48.032Z,97.30
2018-02-17T09:20:48.047Z,97.49
2018-02-17T09:21:48.061Z,97.30
2018-02-17T09:22:48.077Z,97.49
2018-02-17T09:23:48.090Z,97.58
2018-02-17T09:24:48.105Z,97.39
2018-02-17T09:25:48.120Z,97.58
2018-02-17T09:26:48.136Z,97.20
2018-02-17T09:27:48.299Z,97.20
2018-02-17T09:28:48.164Z,96.73
2018-02-17T09:29:48.178Z,96.83
2018-02-17T09:30:48.194Z,97.11
2018-02-17T09:31:48.208Z,97.44
2018-02-17T09:32:48.223Z,97.20
2018-02-17T09:33:48.238Z,97.25
2018-02-17T09:34:48.253Z,96.88
2018-02-17T09:35:48.266Z,97.35
2018-02-17T09:36:48.283Z,97.35
2018-02-17T09:37:48.297Z,96.88
2018-02-17T09:38:48.314Z,96.59
2018-02-17T09:39:48.327Z,96.69
2018-02-17T09:40:48.377Z,96.12
2018-02-17T09:41:48.361Z,95.83
2018-02-17T09:42:48.370Z,95.83
2018-02-17T09:43:48.385Z,95.93
2018-02-17T09:44:48.400Z,95.74
2018-02-17T09:45:48.415Z,95.74
2018-02-17T09:46:48.430Z,95.26
2018-02-17T09:47:48.445Z,94.98
2018-02-17T09:48:48.460Z,94.89
2018-02-17T09:49:48.475Z,94.98
2018-02-17T09:50:48.490Z,94.60
2018-02-17T09:51:48.504Z,94.70
2018-02-17T09:52:48.520Z,95.17
2018-02-17T09:53:48.536Z,94.60
2018-02-17T09:54:48.551Z,94.37
2018-02-17T09:55:48.566Z,94.42
2018-02-17T09:56:48.579Z,94.04
2018-02-17T09:57:48.596Z,93.65
2018-02-17T09:58:48.612Z,94.32
2018-02-17T09:59:48.626Z,95.17
2018-02-17T10:00:48.791Z,94.04
2018-02-17T10:01:48.657Z,94.18
2018-02-17T10:02:48.673Z,93.94
2018-02-17T10:03:48.687Z,94.27
2018-02-17T10:04:48.703Z,93.89
2018-02-17T10:05:48.720Z,93.99
2018-02-17T10:06:48.734Z,93.42
2018-02-17T10:07:48.747Z,93.42
2018-02-17T10:08:48.764Z,93.80
2018-02-17T10:09:48.780Z,93.70
2018-02-17T10:10:48.795Z,93.42
2018-02-17T10:11:48.810Z,92.85
2018-02-17T10:12:48.828Z,93.61
2018-02-17T10:13:48.841Z,93.51
2018-02-17T10:14:48.857Z,93.61
2018-02-17T10:15:48.872Z,93.51
2018-02-17T10:16:48.887Z,93.13
2018-02-17T10:17:48.903Z,92.76
2018-02-17T10:18:48.919Z,92.85
2018-02-17T10:19:48.934Z,92.76
2018-02-17T10:20:48.949Z,92.76
2018-02-17T10:21:48.965Z,92.66
2018-02-17T10:22:48.981Z,92.38
2018-02-17T10:23:48.997Z,92.38
2018-02-17T10:24:49.013Z,92.28
2018-02-17T10:25:49.028Z,92.38
2018-02-17T10:26:49.044Z,92.19
2018-02-17T10:27:49.059Z,92.09
2018-02-17T10:28:49.074Z,92.47
2018-02-17T10:29:49.090Z,92.09
2018-02-17T10:30:49.106Z,92.28
2018-02-17T10:31:49.121Z,92.66
2018-02-17T10:32:49.137Z,92.00
2018-02-17T10:33:49.153Z,91.52
2018-02-17T10:34:49.170Z,91.62
2018-02-17T10:35:49.184Z,92.00
2018-02-17T10:36:49.200Z,91.62
2018-02-17T10:37:49.219Z,91.62
2018-02-17T10:38:49.232Z,90.86
2018-02-17T10:39:49.247Z,91.00
2018-02-17T10:40:49.263Z,91.43
2018-02-17T10:41:49.278Z,91.24
2018-02-17T10:42:49.297Z,90.95
2018-02-17T10:43:49.310Z,90.91
2018-02-17T10:44:49.327Z,90.72
2018-02-17T10:45:49.342Z,90.62
2018-02-17T10:46:49.359Z,90.62
2018-02-17T10:47:49.373Z,91.24
2018-02-17T10:48:49.389Z,90.43
2018-02-17T10:49:49.406Z,90.34
2018-02-17T10:50:49.421Z,90.15
2018-02-17T10:51:49.437Z,89.44
2018-02-17T10:52:49.452Z,89.77
2018-02-17T10:53:49.468Z,90.34
2018-02-17T10:54:49.485Z,90.24
2018-02-17T10:55:49.505Z,89.96
2018-02-17T10:56:49.516Z,89.48
2018-02-17T10:57:49.532Z,88.92
2018-02-17T10:58:49.548Z,89.29
2018-02-17T10:59:49.564Z,88.73
2018-02-17T11:00:49.579Z,88.92
2018-02-17T11:01:49.595Z,88.63
2018-02-17T11:02:49.612Z,88.25
2018-02-17T11:03:49.627Z,88.06
2018-02-17T11:04:49.643Z,87.97
2018-02-17T11:05:49.659Z,87.97
2018-02-17T11:06:49.675Z,87.12
2018-02-17T11:07:49.691Z,86.93
2018-02-17T11:08:49.707Z,87.49
2018-02-17T11:09:49.724Z,86.74
2018-02-17T11:10:49.739Z,86.93
2018-02-17T11:11:49.755Z,86.97
2018-02-17T11:12:49.771Z,86.02
2018-02-17T11:13:49.797Z,86.40
2018-02-17T11:14:49.803Z,86.07
2018-02-17T11:15:49.819Z,86.35
2018-02-17T11:16:49.835Z,86.49
2018-02-17T11:17:49.853Z,87.25
2018-02-17T11:18:49.868Z,86.97
2018-02-17T11:19:49.884Z,86.21
2018-02-17T11:20:49.903Z,86.02
2018-02-17T11:21:49.917Z,85.83
2018-02-17T11:22:50.034Z,86.11
2018-02-17T11:23:49.987Z,86.40
2018-02-17T11:24:49.965Z,85.45
2018-02-17T11:25:49.981Z,85.22
2018-02-17T11:26:49.998Z,85.36
2018-02-17T11:27:50.018Z,84.94
2018-02-17T11:28:50.030Z,85.41
2018-02-17T11:29:50.052Z,85.78
2018-02-17T11:30:50.064Z,85.78
2018-02-17T11:31:50.082Z,85.69
2018-02-17T11:32:50.095Z,85.78
2018-02-17T11:33:50.111Z,85.31
2018-02-17T11:34:50.125Z,86.07
2018-02-17T11:35:50.143Z,86.26
2018-02-17T11:36:50.160Z,86.16
2018-02-17T11:37:50.208Z,85.97
2018-02-17T11:38:50.191Z,85.78
2018-02-17T11:39:50.206Z,85.26
2018-02-17T11:40:50.274Z,85.07
2018-02-17T11:41:50.240Z,85.26
2018-02-17T11:42:50.255Z,85.74
2018-02-17T11:43:50.272Z,85.45
2018-02-17T11:44:50.286Z,85.07
2018-02-17T11:45:50.303Z,84.41
2018-02-17T11:46:50.319Z,84.31
2018-02-17T11:47:50.586Z,83.51
2018-02-17T11:48:50.351Z,84.50
2018-02-17T11:49:50.569Z,84.50
2018-02-17T11:50:50.383Z,84.12
2018-02-17T11:51:50.398Z,83.65
2018-02-17T11:52:50.414Z,83.74
2018-02-17T11:53:50.431Z,83.27
2018-02-17T11:54:50.450Z,83.17
2018-02-17T11:55:50.462Z,83.27
2018-02-17T11:56:50.480Z,83.27
2018-02-17T11:57:50.496Z,83.27
2018-02-17T11:58:50.511Z,83.27
2018-02-17T11:59:50.531Z,83.46
2018-02-17T12:00:50.542Z,83.36
2018-02-17T12:01:50.558Z,83.36
2018-02-17T12:02:50.575Z,83.74
2018-02-17T12:03:50.591Z,83.84
2018-02-17T12:04:50.607Z,83.74
2018-02-17T12:05:50.623Z,83.55
2018-02-17T12:06:50.643Z,83.27
2018-02-17T12:07:50.655Z,82.79
2018-02-17T12:08:50.673Z,83.36
2018-02-17T12:09:50.687Z,83.36
2018-02-17T12:10:50.704Z,82.70
2018-02-17T12:11:50.720Z,82.60
2018-02-17T12:12:50.737Z,82.32
2018-02-17T12:13:50.752Z,81.75
2018-02-17T12:14:50.776Z,81.27
2018-02-17T12:15:50.783Z,80.90
2018-02-17T12:16:50.800Z,80.71
2018-02-17T12:17:50.817Z,80.99
2018-02-17T12:18:50.834Z,80.80
2018-02-17T12:19:50.850Z,80.52
2018-02-17T12:20:50.866Z,80.71
2018-02-17T12:21:50.882Z,80.27
2018-02-17T12:22:50.898Z,80.56
2018-02-17T12:23:50.914Z,80.08
2018-02-17T12:24:50.931Z,79.90
2018-02-17T12:25:50.947Z,79.23
2018-02-17T12:26:50.963Z,79.71
2018-02-17T12:27:50.980Z,79.14
2018-02-17T12:28:50.998Z,79.04
2018-02-17T12:29:51.012Z,78.75
2018-02-17T12:30:51.030Z,78.66
2018-02-17T12:31:51.045Z,78.66
2018-02-17T12:32:51.061Z,78.75
2018-02-17T12:33:51.078Z,78.85
2018-02-17T12:34:51.095Z,78.19
2018-02-17T12:35:51.115Z,77.90
2018-02-17T12:36:51.127Z,78.47
2018-02-17T12:37:51.145Z,77.71
2018-02-17T12:38:51.161Z,77.90
2018-02-17T12:39:51.202Z,77.43
2018-02-17T12:40:51.194Z,77.43
2018-02-17T12:41:51.211Z,77.33
2018-02-17T12:42:51.227Z,77.14
2018-02-17T12:43:51.243Z,77.14
2018-02-17T12:44:51.262Z,76.86
2018-02-17T12:45:51.279Z,76.76
2018-02-17T12:46:51.293Z,76.20
2018-02-17T12:47:51.311Z,76.01
2018-02-17T12:48:51.328Z,76.86
2018-02-17T12:49:51.353Z,76.39
2018-02-17T12:50:51.362Z,76.01
2018-02-17T12:51:51.380Z,75.72
2018-02-17T12:52:51.394Z,75.34